KTFP

McCampbell-Porter Airport

Ingleside, Texas, USA
METAR KTFP 190735Z AUTO 00000KT 3/4SM BR OVC003 16/15 A2989 RMK AO2 T01630150 PNO
Observed Flight Rules
Dec-19 @ 07:35 UTC (22 minutes ago) Instrument Flight Rules
Visibility Clouds Conditions
3/4 miles
  • Overcast at 300' AGL
  • Mist
Temperatures Readings
Current 16°C / 61°F
Dewpoint 15°C / 59°F
Humidity 94%
Altimeter 29.89" Hg
Pressure 1012 hPa
Elevation 6
METAR KTFP 190735Z AUTO 00000KT 3/4SM BR OVC003 16/15 A2989 RMK AO2 T01630150 PNO
Observed Flight Rules
Dec-19 @ 07:35 UTC
(22 minutes ago)
LIFR
Clouds
  • Overcast at 300' AGL
Conditions
  • Mist
Temperature Dewpoint
16°C / 61°F 15°C / 59°F
Humidity Altimeter Pressure
94% 29.89" Hg 1012 hPa